sensor_id;sensor_type;location;lat;lon;timestamp;P1;durP1;ratioP1;P2;durP2;ratioP2
75297;SDS011;63896;45.990;18.688;2022-11-12T00:01:41;41.22;;;20.98;;
75297;SDS011;63896;45.990;18.688;2022-11-12T00:05:02;53.10;;;27.17;;
75297;SDS011;63896;45.990;18.688;2022-11-12T00:08:23;66.82;;;31.27;;
75297;SDS011;63896;45.990;18.688;2022-11-12T00:11:45;57.58;;;28.60;;
75297;SDS011;63896;45.990;18.688;2022-11-12T00:15:06;54.88;;;27.67;;
75297;SDS011;63896;45.990;18.688;2022-11-12T00:18:28;43.15;;;21.73;;
75297;SDS011;63896;45.990;18.688;2022-11-12T00:21:49;37.53;;;20.93;;
75297;SDS011;63896;45.990;18.688;2022-11-12T00:25:10;33.53;;;17.55;;
75297;SDS011;63896;45.990;18.688;2022-11-12T00:28:32;34.28;;;18.65;;
75297;SDS011;63896;45.990;18.688;2022-11-12T00:31:58;32.58;;;18.63;;
75297;SDS011;63896;45.990;18.688;2022-11-12T00:35:19;35.67;;;20.00;;
75297;SDS011;63896;45.990;18.688;2022-11-12T00:38:40;45.73;;;20.63;;
75297;SDS011;63896;45.990;18.688;2022-11-12T00:42:02;40.25;;;20.30;;
75297;SDS011;63896;45.990;18.688;2022-11-12T00:45:23;38.45;;;19.60;;
75297;SDS011;63896;45.990;18.688;2022-11-12T00:48:45;41.83;;;20.25;;
75297;SDS011;63896;45.990;18.688;2022-11-12T00:52:06;36.95;;;18.17;;
75297;SDS011;63896;45.990;18.688;2022-11-12T00:55:27;34.30;;;17.03;;
75297;SDS011;63896;45.990;18.688;2022-11-12T00:58:48;31.55;;;15.02;;
75297;SDS011;63896;45.990;18.688;2022-11-12T01:02:09;29.48;;;15.57;;
75297;SDS011;63896;45.990;18.688;2022-11-12T01:05:31;25.95;;;13.82;;
75297;SDS011;63896;45.990;18.688;2022-11-12T01:08:53;30.40;;;14.77;;
75297;SDS011;63896;45.990;18.688;2022-11-12T01:12:15;30.10;;;15.40;;
75297;SDS011;63896;45.990;18.688;2022-11-12T01:15:40;29.50;;;15.25;;
75297;SDS011;63896;45.990;18.688;2022-11-12T01:19:03;29.45;;;15.35;;
75297;SDS011;63896;45.990;18.688;2022-11-12T01:22:26;28.00;;;15.18;;
75297;SDS011;63896;45.990;18.688;2022-11-12T01:25:47;27.75;;;14.32;;
75297;SDS011;63896;45.990;18.688;2022-11-12T01:29:09;39.70;;;18.77;;
75297;SDS011;63896;45.990;18.688;2022-11-12T01:32:33;41.72;;;19.80;;
75297;SDS011;63896;45.990;18.688;2022-11-12T01:35:57;40.20;;;21.02;;
75297;SDS011;63896;45.990;18.688;2022-11-12T01:39:19;32.53;;;18.35;;
75297;SDS011;63896;45.990;18.688;2022-11-12T01:42:40;29.45;;;16.48;;
75297;SDS011;63896;45.990;18.688;2022-11-12T01:46:02;31.67;;;15.23;;
75297;SDS011;63896;45.990;18.688;2022-11-12T01:53:17;48.88;;;22.17;;
75297;SDS011;63896;45.990;18.688;2022-11-12T01:56:43;48.28;;;22.42;;
75297;SDS011;63896;45.990;18.688;2022-11-12T02:00:07;52.03;;;23.38;;
75297;SDS011;63896;45.990;18.688;2022-11-12T02:03:31;46.50;;;21.87;;
75297;SDS011;63896;45.990;18.688;2022-11-12T02:06:52;39.70;;;20.30;;
75297;SDS011;63896;45.990;18.688;2022-11-12T02:10:18;31.92;;;18.45;;
75297;SDS011;63896;45.990;18.688;2022-11-12T02:13:41;32.10;;;18.17;;
75297;SDS011;63896;45.990;18.688;2022-11-12T02:17:25;33.88;;;18.17;;
75297;SDS011;63896;45.990;18.688;2022-11-12T02:20:51;30.27;;;17.57;;
75297;SDS011;63896;45.990;18.688;2022-11-12T02:27:38;55.13;;;26.80;;
75297;SDS011;63896;45.990;18.688;2022-11-12T02:31:00;74.88;;;34.22;;
75297;SDS011;63896;45.990;18.688;2022-11-12T02:34:21;36.40;;;19.95;;
75297;SDS011;63896;45.990;18.688;2022-11-12T02:37:42;31.73;;;17.43;;
75297;SDS011;63896;45.990;18.688;2022-11-12T02:41:03;35.67;;;19.58;;
75297;SDS011;63896;45.990;18.688;2022-11-12T02:44:24;34.13;;;19.52;;
75297;SDS011;63896;45.990;18.688;2022-11-12T02:47:46;36.08;;;19.25;;
75297;SDS011;63896;45.990;18.688;2022-11-12T02:51:08;33.13;;;18.08;;
75297;SDS011;63896;45.990;18.688;2022-11-12T02:54:29;35.73;;;19.50;;
75297;SDS011;63896;45.990;18.688;2022-11-12T02:57:50;34.90;;;20.23;;
75297;SDS011;63896;45.990;18.688;2022-11-12T03:01:11;49.20;;;24.02;;
75297;SDS011;63896;45.990;18.688;2022-11-12T03:04:32;49.47;;;23.73;;
75297;SDS011;63896;45.990;18.688;2022-11-12T03:07:54;41.65;;;22.48;;
75297;SDS011;63896;45.990;18.688;2022-11-12T03:11:20;33.40;;;18.30;;
75297;SDS011;63896;45.990;18.688;2022-11-12T03:14:41;32.67;;;16.73;;
75297;SDS011;63896;45.990;18.688;2022-11-12T03:18:02;36.03;;;18.85;;
75297;SDS011;63896;45.990;18.688;2022-11-12T03:21:23;31.88;;;16.73;;
75297;SDS011;63896;45.990;18.688;2022-11-12T03:24:45;30.17;;;17.33;;
75297;SDS011;63896;45.990;18.688;2022-11-12T03:28:08;30.03;;;16.77;;
75297;SDS011;63896;45.990;18.688;2022-11-12T03:31:31;29.58;;;17.63;;
75297;SDS011;63896;45.990;18.688;2022-11-12T03:34:52;31.05;;;17.42;;
75297;SDS011;63896;45.990;18.688;2022-11-12T03:38:15;32.83;;;17.95;;
75297;SDS011;63896;45.990;18.688;2022-11-12T03:41:36;39.60;;;20.20;;
75297;SDS011;63896;45.990;18.688;2022-11-12T03:44:57;33.90;;;18.43;;
75297;SDS011;63896;45.990;18.688;2022-11-12T03:48:18;32.10;;;18.83;;
75297;SDS011;63896;45.990;18.688;2022-11-12T03:51:39;38.10;;;18.88;;
75297;SDS011;63896;45.990;18.688;2022-11-12T03:55:00;35.85;;;20.27;;
75297;SDS011;63896;45.990;18.688;2022-11-12T03:58:22;49.58;;;25.95;;
75297;SDS011;63896;45.990;18.688;2022-11-12T04:01:43;62.50;;;33.00;;
75297;SDS011;63896;45.990;18.688;2022-11-12T04:05:04;48.53;;;25.63;;
75297;SDS011;63896;45.990;18.688;2022-11-12T04:08:46;36.42;;;20.30;;
75297;SDS011;63896;45.990;18.688;2022-11-12T04:12:07;27.65;;;17.38;;
75297;SDS011;63896;45.990;18.688;2022-11-12T04:15:53;28.38;;;16.38;;
75297;SDS011;63896;45.990;18.688;2022-11-12T04:19:32;28.03;;;16.53;;
75297;SDS011;63896;45.990;18.688;2022-11-12T04:23:12;28.65;;;16.88;;
75297;SDS011;63896;45.990;18.688;2022-11-12T04:26:33;30.90;;;17.98;;
75297;SDS011;63896;45.990;18.688;2022-11-12T04:29:55;29.25;;;16.88;;
75297;SDS011;63896;45.990;18.688;2022-11-12T04:33:34;31.30;;;18.88;;
75297;SDS011;63896;45.990;18.688;2022-11-12T04:36:56;29.93;;;17.93;;
75297;SDS011;63896;45.990;18.688;2022-11-12T04:40:21;31.73;;;18.58;;
75297;SDS011;63896;45.990;18.688;2022-11-12T04:44:03;33.50;;;18.63;;
75297;SDS011;63896;45.990;18.688;2022-11-12T04:47:43;31.88;;;18.10;;
75297;SDS011;63896;45.990;18.688;2022-11-12T04:51:04;30.33;;;18.25;;
75297;SDS011;63896;45.990;18.688;2022-11-12T04:54:44;32.43;;;18.67;;
75297;SDS011;63896;45.990;18.688;2022-11-12T04:58:06;32.45;;;18.95;;
75297;SDS011;63896;45.990;18.688;2022-11-12T05:01:27;31.40;;;18.80;;
75297;SDS011;63896;45.990;18.688;2022-11-12T05:04:48;30.77;;;19.10;;
75297;SDS011;63896;45.990;18.688;2022-11-12T05:08:09;36.63;;;20.77;;
75297;SDS011;63896;45.990;18.688;2022-11-12T05:11:31;38.17;;;21.30;;
75297;SDS011;63896;45.990;18.688;2022-11-12T05:14:52;43.38;;;23.15;;
75297;SDS011;63896;45.990;18.688;2022-11-12T05:18:14;40.50;;;22.27;;
75297;SDS011;63896;45.990;18.688;2022-11-12T05:21:35;35.50;;;20.30;;
75297;SDS011;63896;45.990;18.688;2022-11-12T05:25:17;41.35;;;23.20;;
75297;SDS011;63896;45.990;18.688;2022-11-12T05:28:38;39.87;;;23.10;;
75297;SDS011;63896;45.990;18.688;2022-11-12T05:31:59;37.53;;;22.27;;
75297;SDS011;63896;45.990;18.688;2022-11-12T05:35:21;40.35;;;23.85;;
75297;SDS011;63896;45.990;18.688;2022-11-12T05:38:42;38.55;;;21.27;;
75297;SDS011;63896;45.990;18.688;2022-11-12T05:42:04;35.45;;;21.42;;
75297;SDS011;63896;45.990;18.688;2022-11-12T05:45:33;43.30;;;21.77;;
75297;SDS011;63896;45.990;18.688;2022-11-12T05:48:54;40.10;;;21.75;;
75297;SDS011;63896;45.990;18.688;2022-11-12T05:52:15;38.13;;;21.95;;
75297;SDS011;63896;45.990;18.688;2022-11-12T05:55:37;36.15;;;21.65;;
75297;SDS011;63896;45.990;18.688;2022-11-12T05:58:59;32.33;;;19.80;;
75297;SDS011;63896;45.990;18.688;2022-11-12T06:02:22;29.77;;;19.00;;
75297;SDS011;63896;45.990;18.688;2022-11-12T06:05:43;33.72;;;19.95;;
75297;SDS011;63896;45.990;18.688;2022-11-12T06:09:04;42.25;;;22.30;;
75297;SDS011;63896;45.990;18.688;2022-11-12T06:12:26;48.60;;;27.40;;
75297;SDS011;63896;45.990;18.688;2022-11-12T06:15:47;47.60;;;27.55;;
75297;SDS011;63896;45.990;18.688;2022-11-12T06:19:08;43.00;;;23.77;;
75297;SDS011;63896;45.990;18.688;2022-11-12T06:22:30;36.30;;;21.50;;
75297;SDS011;63896;45.990;18.688;2022-11-12T06:25:51;36.15;;;21.30;;
75297;SDS011;63896;45.990;18.688;2022-11-12T06:29:12;46.20;;;26.90;;
75297;SDS011;63896;45.990;18.688;2022-11-12T06:32:34;60.13;;;32.08;;
75297;SDS011;63896;45.990;18.688;2022-11-12T06:35:59;64.13;;;35.53;;
75297;SDS011;63896;45.990;18.688;2022-11-12T06:39:23;47.50;;;27.02;;
75297;SDS011;63896;45.990;18.688;2022-11-12T06:42:44;46.45;;;27.08;;
75297;SDS011;63896;45.990;18.688;2022-11-12T06:46:06;38.53;;;22.35;;
75297;SDS011;63896;45.990;18.688;2022-11-12T06:49:33;44.45;;;24.20;;
75297;SDS011;63896;45.990;18.688;2022-11-12T06:52:58;78.90;;;36.93;;
75297;SDS011;63896;45.990;18.688;2022-11-12T06:56:19;50.50;;;28.30;;
75297;SDS011;63896;45.990;18.688;2022-11-12T06:59:41;41.97;;;24.50;;
75297;SDS011;63896;45.990;18.688;2022-11-12T07:03:06;42.33;;;24.88;;
75297;SDS011;63896;45.990;18.688;2022-11-12T07:06:28;41.42;;;24.27;;
75297;SDS011;63896;45.990;18.688;2022-11-12T07:09:50;42.70;;;24.20;;
75297;SDS011;63896;45.990;18.688;2022-11-12T07:13:11;40.85;;;23.77;;
75297;SDS011;63896;45.990;18.688;2022-11-12T07:16:33;40.33;;;23.48;;
75297;SDS011;63896;45.990;18.688;2022-11-12T07:19:55;46.20;;;23.73;;
75297;SDS011;63896;45.990;18.688;2022-11-12T07:23:23;40.67;;;21.80;;
75297;SDS011;63896;45.990;18.688;2022-11-12T07:26:44;40.47;;;22.30;;
75297;SDS011;63896;45.990;18.688;2022-11-12T07:30:07;41.10;;;23.60;;
75297;SDS011;63896;45.990;18.688;2022-11-12T07:33:29;60.33;;;29.90;;
75297;SDS011;63896;45.990;18.688;2022-11-12T07:36:51;55.75;;;28.73;;
75297;SDS011;63896;45.990;18.688;2022-11-12T07:40:12;51.50;;;28.42;;
75297;SDS011;63896;45.990;18.688;2022-11-12T07:43:34;52.90;;;27.40;;
75297;SDS011;63896;45.990;18.688;2022-11-12T07:46:56;49.00;;;27.23;;
75297;SDS011;63896;45.990;18.688;2022-11-12T07:50:17;46.20;;;27.40;;
75297;SDS011;63896;45.990;18.688;2022-11-12T07:53:39;48.40;;;28.83;;
75297;SDS011;63896;45.990;18.688;2022-11-12T07:57:00;44.00;;;24.25;;
75297;SDS011;63896;45.990;18.688;2022-11-12T08:00:22;33.97;;;20.17;;
75297;SDS011;63896;45.990;18.688;2022-11-12T08:03:43;36.00;;;20.67;;
75297;SDS011;63896;45.990;18.688;2022-11-12T08:07:04;40.53;;;23.70;;
75297;SDS011;63896;45.990;18.688;2022-11-12T08:10:26;41.13;;;23.17;;
75297;SDS011;63896;45.990;18.688;2022-11-12T08:13:48;38.40;;;22.05;;
75297;SDS011;63896;45.990;18.688;2022-11-12T08:17:10;46.07;;;25.77;;
75297;SDS011;63896;45.990;18.688;2022-11-12T08:20:31;44.65;;;25.13;;
75297;SDS011;63896;45.990;18.688;2022-11-12T08:23:52;53.78;;;32.60;;
75297;SDS011;63896;45.990;18.688;2022-11-12T08:27:13;65.97;;;37.00;;
75297;SDS011;63896;45.990;18.688;2022-11-12T08:30:38;41.83;;;25.08;;
75297;SDS011;63896;45.990;18.688;2022-11-12T08:33:59;44.33;;;25.17;;
75297;SDS011;63896;45.990;18.688;2022-11-12T08:37:32;38.33;;;23.90;;
75297;SDS011;63896;45.990;18.688;2022-11-12T08:40:53;43.03;;;24.98;;
75297;SDS011;63896;45.990;18.688;2022-11-12T08:44:15;63.72;;;36.05;;
75297;SDS011;63896;45.990;18.688;2022-11-12T08:47:36;64.30;;;38.72;;
75297;SDS011;63896;45.990;18.688;2022-11-12T08:50:59;70.40;;;40.27;;
75297;SDS011;63896;45.990;18.688;2022-11-12T08:54:22;48.78;;;26.40;;
75297;SDS011;63896;45.990;18.688;2022-11-12T08:57:43;34.63;;;21.02;;
75297;SDS011;63896;45.990;18.688;2022-11-12T09:01:07;34.55;;;20.27;;
75297;SDS011;63896;45.990;18.688;2022-11-12T09:04:29;29.73;;;18.02;;
75297;SDS011;63896;45.990;18.688;2022-11-12T09:08:00;31.40;;;18.20;;
75297;SDS011;63896;45.990;18.688;2022-11-12T09:11:23;31.42;;;19.05;;
75297;SDS011;63896;45.990;18.688;2022-11-12T09:14:44;38.08;;;23.13;;
75297;SDS011;63896;45.990;18.688;2022-11-12T09:18:07;44.22;;;26.80;;
75297;SDS011;63896;45.990;18.688;2022-11-12T09:21:32;45.25;;;26.13;;
75297;SDS011;63896;45.990;18.688;2022-11-12T09:24:53;37.33;;;21.93;;
75297;SDS011;63896;45.990;18.688;2022-11-12T09:28:16;31.15;;;20.15;;
75297;SDS011;63896;45.990;18.688;2022-11-12T09:31:38;26.83;;;16.80;;
75297;SDS011;63896;45.990;18.688;2022-11-12T09:34:59;24.27;;;15.45;;
75297;SDS011;63896;45.990;18.688;2022-11-12T09:38:21;25.45;;;16.70;;
75297;SDS011;63896;45.990;18.688;2022-11-12T09:41:42;27.90;;;15.50;;
75297;SDS011;63896;45.990;18.688;2022-11-12T09:45:11;25.10;;;15.27;;
75297;SDS011;63896;45.990;18.688;2022-11-12T09:48:40;21.63;;;14.30;;
75297;SDS011;63896;45.990;18.688;2022-11-12T09:52:15;25.92;;;15.75;;
75297;SDS011;63896;45.990;18.688;2022-11-12T09:55:42;29.95;;;15.43;;
75297;SDS011;63896;45.990;18.688;2022-11-12T09:59:13;26.83;;;15.17;;
75297;SDS011;63896;45.990;18.688;2022-11-12T10:03:10;24.20;;;14.30;;
75297;SDS011;63896;45.990;18.688;2022-11-12T10:10:17;21.55;;;12.85;;
75297;SDS011;63896;45.990;18.688;2022-11-12T10:17:41;22.57;;;13.77;;
75297;SDS011;63896;45.990;18.688;2022-11-12T10:25:14;20.35;;;12.57;;
75297;SDS011;63896;45.990;18.688;2022-11-12T10:32:22;21.10;;;12.00;;
75297;SDS011;63896;45.990;18.688;2022-11-12T10:35:43;20.93;;;11.90;;
75297;SDS011;63896;45.990;18.688;2022-11-12T10:39:05;15.73;;;12.18;;
75297;SDS011;63896;45.990;18.688;2022-11-12T10:42:31;15.15;;;10.27;;
75297;SDS011;63896;45.990;18.688;2022-11-12T10:45:52;13.10;;;9.95;;
75297;SDS011;63896;45.990;18.688;2022-11-12T10:49:34;16.20;;;10.15;;
75297;SDS011;63896;45.990;18.688;2022-11-12T10:53:00;14.63;;;9.70;;
75297;SDS011;63896;45.990;18.688;2022-11-12T10:59:45;12.00;;;9.38;;
75297;SDS011;63896;45.990;18.688;2022-11-12T11:03:18;10.77;;;8.70;;
75297;SDS011;63896;45.990;18.688;2022-11-12T11:06:43;14.48;;;8.75;;
75297;SDS011;63896;45.990;18.688;2022-11-12T11:10:10;13.20;;;8.57;;
75297;SDS011;63896;45.990;18.688;2022-11-12T11:13:43;12.88;;;8.80;;
75297;SDS011;63896;45.990;18.688;2022-11-12T11:17:14;12.20;;;8.13;;
75297;SDS011;63896;45.990;18.688;2022-11-12T11:20:42;11.43;;;8.50;;
75297;SDS011;63896;45.990;18.688;2022-11-12T11:24:20;11.45;;;8.50;;
75297;SDS011;63896;45.990;18.688;2022-11-12T11:31:31;10.52;;;8.48;;
75297;SDS011;63896;45.990;18.688;2022-11-12T11:35:10;12.40;;;9.20;;
75297;SDS011;63896;45.990;18.688;2022-11-12T11:38:47;12.02;;;8.30;;
75297;SDS011;63896;45.990;18.688;2022-11-12T11:42:17;12.93;;;8.30;;
75297;SDS011;63896;45.990;18.688;2022-11-12T11:49:41;11.40;;;9.15;;
75297;SDS011;63896;45.990;18.688;2022-11-12T11:53:28;11.43;;;8.60;;
75297;SDS011;63896;45.990;18.688;2022-11-12T11:56:59;11.73;;;8.70;;
75297;SDS011;63896;45.990;18.688;2022-11-12T12:00:29;11.15;;;9.23;;
75297;SDS011;63896;45.990;18.688;2022-11-12T12:07:54;11.70;;;9.52;;
75297;SDS011;63896;45.990;18.688;2022-11-12T12:18:52;13.10;;;9.52;;
75297;SDS011;63896;45.990;18.688;2022-11-12T12:22:35;11.43;;;9.33;;
75297;SDS011;63896;45.990;18.688;2022-11-12T12:26:02;12.50;;;8.13;;
75297;SDS011;63896;45.990;18.688;2022-11-12T12:29:50;10.63;;;8.70;;
75297;SDS011;63896;45.990;18.688;2022-11-12T12:33:24;12.02;;;8.38;;
75297;SDS011;63896;45.990;18.688;2022-11-12T12:36:53;11.40;;;8.43;;
75297;SDS011;63896;45.990;18.688;2022-11-12T12:44:26;10.93;;;8.85;;
75297;SDS011;63896;45.990;18.688;2022-11-12T12:48:20;15.88;;;10.32;;
75297;SDS011;63896;45.990;18.688;2022-11-12T12:51:46;16.92;;;9.80;;
75297;SDS011;63896;45.990;18.688;2022-11-12T12:55:49;14.73;;;9.85;;
75297;SDS011;63896;45.990;18.688;2022-11-12T12:59:17;15.20;;;10.40;;
75297;SDS011;63896;45.990;18.688;2022-11-12T13:02:40;15.68;;;10.38;;
75297;SDS011;63896;45.990;18.688;2022-11-12T13:06:05;16.05;;;10.52;;
75297;SDS011;63896;45.990;18.688;2022-11-12T13:09:28;13.13;;;9.70;;
75297;SDS011;63896;45.990;18.688;2022-11-12T13:13:00;16.98;;;10.25;;
75297;SDS011;63896;45.990;18.688;2022-11-12T13:20:16;14.02;;;9.77;;
75297;SDS011;63896;45.990;18.688;2022-11-12T13:31:00;15.27;;;10.65;;
75297;SDS011;63896;45.990;18.688;2022-11-12T13:34:26;14.90;;;11.53;;
75297;SDS011;63896;45.990;18.688;2022-11-12T13:41:21;16.10;;;11.82;;
75297;SDS011;63896;45.990;18.688;2022-11-12T13:45:04;17.60;;;12.55;;
75297;SDS011;63896;45.990;18.688;2022-11-12T13:48:27;18.30;;;12.85;;
75297;SDS011;63896;45.990;18.688;2022-11-12T13:51:54;17.93;;;12.33;;
75297;SDS011;63896;45.990;18.688;2022-11-12T13:55:20;18.77;;;13.45;;
75297;SDS011;63896;45.990;18.688;2022-11-12T13:58:42;19.67;;;14.00;;
75297;SDS011;63896;45.990;18.688;2022-11-12T14:02:08;19.00;;;13.73;;
75297;SDS011;63896;45.990;18.688;2022-11-12T14:05:44;21.88;;;15.25;;
75297;SDS011;63896;45.990;18.688;2022-11-12T14:12:46;21.23;;;14.20;;
75297;SDS011;63896;45.990;18.688;2022-11-12T14:19:54;22.60;;;15.25;;
75297;SDS011;63896;45.990;18.688;2022-11-12T14:23:27;25.10;;;16.70;;
75297;SDS011;63896;45.990;18.688;2022-11-12T14:26:48;26.43;;;16.13;;
75297;SDS011;63896;45.990;18.688;2022-11-12T14:33:31;25.90;;;17.20;;
75297;SDS011;63896;45.990;18.688;2022-11-12T14:36:53;27.35;;;17.13;;
75297;SDS011;63896;45.990;18.688;2022-11-12T14:40:16;29.98;;;17.75;;
75297;SDS011;63896;45.990;18.688;2022-11-12T14:43:42;29.43;;;18.60;;
75297;SDS011;63896;45.990;18.688;2022-11-12T14:47:07;28.58;;;18.83;;
75297;SDS011;63896;45.990;18.688;2022-11-12T14:50:30;31.88;;;20.55;;
75297;SDS011;63896;45.990;18.688;2022-11-12T14:54:04;32.53;;;20.25;;
75297;SDS011;63896;45.990;18.688;2022-11-12T14:57:28;32.92;;;21.55;;
75297;SDS011;63896;45.990;18.688;2022-11-12T15:00:52;35.67;;;21.50;;
75297;SDS011;63896;45.990;18.688;2022-11-12T15:04:19;37.55;;;22.75;;
75297;SDS011;63896;45.990;18.688;2022-11-12T15:08:04;43.30;;;25.85;;
75297;SDS011;63896;45.990;18.688;2022-11-12T15:11:31;46.72;;;26.90;;
75297;SDS011;63896;45.990;18.688;2022-11-12T15:15:08;49.13;;;28.02;;
75297;SDS011;63896;45.990;18.688;2022-11-12T15:18:38;62.53;;;33.37;;
75297;SDS011;63896;45.990;18.688;2022-11-12T15:22:00;62.47;;;34.60;;
75297;SDS011;63896;45.990;18.688;2022-11-12T15:25:25;66.90;;;34.20;;
75297;SDS011;63896;45.990;18.688;2022-11-12T15:28:58;57.72;;;32.45;;
75297;SDS011;63896;45.990;18.688;2022-11-12T15:35:44;60.00;;;32.27;;
75297;SDS011;63896;45.990;18.688;2022-11-12T15:39:16;63.72;;;34.63;;
75297;SDS011;63896;45.990;18.688;2022-11-12T15:42:40;66.40;;;37.22;;
75297;SDS011;63896;45.990;18.688;2022-11-12T15:46:02;62.88;;;35.58;;
75297;SDS011;63896;45.990;18.688;2022-11-12T15:49:23;61.67;;;34.33;;
75297;SDS011;63896;45.990;18.688;2022-11-12T15:52:45;60.87;;;33.07;;
75297;SDS011;63896;45.990;18.688;2022-11-12T15:56:10;60.10;;;31.83;;
75297;SDS011;63896;45.990;18.688;2022-11-12T15:59:36;62.53;;;32.88;;
75297;SDS011;63896;45.990;18.688;2022-11-12T16:02:58;62.88;;;32.80;;
75297;SDS011;63896;45.990;18.688;2022-11-12T16:06:29;64.25;;;32.45;;
75297;SDS011;63896;45.990;18.688;2022-11-12T16:09:50;100.60;;;47.63;;
75297;SDS011;63896;45.990;18.688;2022-11-12T16:13:27;109.53;;;53.33;;
75297;SDS011;63896;45.990;18.688;2022-11-12T16:16:51;112.93;;;55.40;;
75297;SDS011;63896;45.990;18.688;2022-11-12T16:20:20;118.75;;;59.97;;
75297;SDS011;63896;45.990;18.688;2022-11-12T16:23:44;115.40;;;58.63;;
75297;SDS011;63896;45.990;18.688;2022-11-12T16:27:05;105.37;;;54.03;;
75297;SDS011;63896;45.990;18.688;2022-11-12T16:30:28;107.78;;;53.28;;
75297;SDS011;63896;45.990;18.688;2022-11-12T16:33:51;103.45;;;52.42;;
75297;SDS011;63896;45.990;18.688;2022-11-12T16:37:12;115.45;;;57.63;;
75297;SDS011;63896;45.990;18.688;2022-11-12T16:40:33;103.10;;;56.60;;
75297;SDS011;63896;45.990;18.688;2022-11-12T16:43:54;103.00;;;55.37;;
75297;SDS011;63896;45.990;18.688;2022-11-12T16:47:16;104.00;;;57.22;;
75297;SDS011;63896;45.990;18.688;2022-11-12T16:50:37;99.78;;;52.60;;
75297;SDS011;63896;45.990;18.688;2022-11-12T16:53:59;105.50;;;54.75;;
75297;SDS011;63896;45.990;18.688;2022-11-12T16:57:20;121.05;;;62.78;;
75297;SDS011;63896;45.990;18.688;2022-11-12T17:00:42;127.90;;;65.83;;
75297;SDS011;63896;45.990;18.688;2022-11-12T17:04:05;158.95;;;79.82;;
75297;SDS011;63896;45.990;18.688;2022-11-12T17:07:27;191.63;;;96.00;;
75297;SDS011;63896;45.990;18.688;2022-11-12T17:10:48;184.27;;;90.90;;
75297;SDS011;63896;45.990;18.688;2022-11-12T17:14:10;136.10;;;68.70;;
75297;SDS011;63896;45.990;18.688;2022-11-12T17:17:31;128.93;;;63.93;;
75297;SDS011;63896;45.990;18.688;2022-11-12T17:20:53;123.82;;;58.15;;
75297;SDS011;63896;45.990;18.688;2022-11-12T17:24:14;108.55;;;53.88;;
75297;SDS011;63896;45.990;18.688;2022-11-12T17:27:35;99.35;;;49.40;;
75297;SDS011;63896;45.990;18.688;2022-11-12T17:34:37;99.43;;;45.50;;
75297;SDS011;63896;45.990;18.688;2022-11-12T17:37:58;91.05;;;45.40;;
75297;SDS011;63896;45.990;18.688;2022-11-12T17:41:20;91.03;;;46.70;;
75297;SDS011;63896;45.990;18.688;2022-11-12T17:44:41;98.72;;;47.50;;
75297;SDS011;63896;45.990;18.688;2022-11-12T17:48:04;97.15;;;45.90;;
75297;SDS011;63896;45.990;18.688;2022-11-12T17:51:26;88.50;;;43.63;;
75297;SDS011;63896;45.990;18.688;2022-11-12T17:54:48;90.40;;;43.88;;
75297;SDS011;63896;45.990;18.688;2022-11-12T17:58:10;120.85;;;56.63;;
75297;SDS011;63896;45.990;18.688;2022-11-12T18:01:31;153.05;;;70.72;;
75297;SDS011;63896;45.990;18.688;2022-11-12T18:04:54;168.63;;;77.40;;
75297;SDS011;63896;45.990;18.688;2022-11-12T18:08:16;190.90;;;93.37;;
75297;SDS011;63896;45.990;18.688;2022-11-12T18:11:44;231.02;;;109.53;;
75297;SDS011;63896;45.990;18.688;2022-11-12T18:15:08;240.20;;;112.13;;
75297;SDS011;63896;45.990;18.688;2022-11-12T18:18:31;234.23;;;108.25;;
75297;SDS011;63896;45.990;18.688;2022-11-12T18:21:52;235.82;;;104.20;;
75297;SDS011;63896;45.990;18.688;2022-11-12T18:25:17;211.20;;;93.73;;
75297;SDS011;63896;45.990;18.688;2022-11-12T18:28:38;198.98;;;91.93;;
75297;SDS011;63896;45.990;18.688;2022-11-12T18:32:00;204.32;;;90.95;;
75297;SDS011;63896;45.990;18.688;2022-11-12T18:35:22;182.88;;;81.50;;
75297;SDS011;63896;45.990;18.688;2022-11-12T18:38:49;147.95;;;68.28;;
75297;SDS011;63896;45.990;18.688;2022-11-12T18:42:12;137.70;;;62.83;;
75297;SDS011;63896;45.990;18.688;2022-11-12T18:45:34;124.82;;;55.75;;
75297;SDS011;63896;45.990;18.688;2022-11-12T18:48:55;94.78;;;45.80;;
75297;SDS011;63896;45.990;18.688;2022-11-12T18:52:17;80.47;;;38.85;;
75297;SDS011;63896;45.990;18.688;2022-11-12T18:55:38;72.20;;;33.00;;
75297;SDS011;63896;45.990;18.688;2022-11-12T18:59:00;78.87;;;34.10;;
75297;SDS011;63896;45.990;18.688;2022-11-12T19:02:21;78.72;;;35.08;;
75297;SDS011;63896;45.990;18.688;2022-11-12T19:05:42;80.78;;;36.53;;
75297;SDS011;63896;45.990;18.688;2022-11-12T19:09:04;81.40;;;37.17;;
75297;SDS011;63896;45.990;18.688;2022-11-12T19:12:26;83.60;;;36.20;;
75297;SDS011;63896;45.990;18.688;2022-11-12T19:15:47;78.33;;;34.47;;
75297;SDS011;63896;45.990;18.688;2022-11-12T19:19:10;68.30;;;32.42;;
75297;SDS011;63896;45.990;18.688;2022-11-12T19:22:32;76.40;;;34.70;;
75297;SDS011;63896;45.990;18.688;2022-11-12T19:25:54;76.82;;;37.05;;
75297;SDS011;63896;45.990;18.688;2022-11-12T19:29:16;79.53;;;36.67;;
75297;SDS011;63896;45.990;18.688;2022-11-12T19:32:37;96.60;;;40.40;;
75297;SDS011;63896;45.990;18.688;2022-11-12T19:36:00;94.82;;;39.60;;
75297;SDS011;63896;45.990;18.688;2022-11-12T19:39:26;92.97;;;41.40;;
75297;SDS011;63896;45.990;18.688;2022-11-12T19:42:48;80.50;;;35.92;;
75297;SDS011;63896;45.990;18.688;2022-11-12T19:46:10;75.05;;;35.55;;
75297;SDS011;63896;45.990;18.688;2022-11-12T19:49:32;74.40;;;36.20;;
75297;SDS011;63896;45.990;18.688;2022-11-12T19:52:53;73.97;;;33.58;;
75297;SDS011;63896;45.990;18.688;2022-11-12T19:56:15;69.53;;;34.17;;
75297;SDS011;63896;45.990;18.688;2022-11-12T19:59:41;74.05;;;33.67;;
75297;SDS011;63896;45.990;18.688;2022-11-12T20:03:03;69.18;;;31.52;;
75297;SDS011;63896;45.990;18.688;2022-11-12T20:06:24;73.77;;;34.10;;
75297;SDS011;63896;45.990;18.688;2022-11-12T20:09:47;72.60;;;34.42;;
75297;SDS011;63896;45.990;18.688;2022-11-12T20:13:08;72.15;;;35.15;;
75297;SDS011;63896;45.990;18.688;2022-11-12T20:16:30;70.30;;;33.25;;
75297;SDS011;63896;45.990;18.688;2022-11-12T20:19:53;71.18;;;33.22;;
75297;SDS011;63896;45.990;18.688;2022-11-12T20:23:14;67.60;;;31.87;;
75297;SDS011;63896;45.990;18.688;2022-11-12T20:26:35;72.47;;;34.03;;
75297;SDS011;63896;45.990;18.688;2022-11-12T20:29:57;71.78;;;34.70;;
75297;SDS011;63896;45.990;18.688;2022-11-12T20:33:19;69.88;;;33.50;;
75297;SDS011;63896;45.990;18.688;2022-11-12T20:36:40;65.43;;;32.65;;
75297;SDS011;63896;45.990;18.688;2022-11-12T20:40:03;59.77;;;29.33;;
75297;SDS011;63896;45.990;18.688;2022-11-12T20:43:24;71.38;;;33.13;;
75297;SDS011;63896;45.990;18.688;2022-11-12T20:46:49;67.22;;;31.98;;
75297;SDS011;63896;45.990;18.688;2022-11-12T20:50:10;68.45;;;32.75;;
75297;SDS011;63896;45.990;18.688;2022-11-12T20:53:32;72.82;;;33.70;;
75297;SDS011;63896;45.990;18.688;2022-11-12T20:56:53;68.33;;;33.03;;
75297;SDS011;63896;45.990;18.688;2022-11-12T21:00:16;73.70;;;33.80;;